createdAt,value
2022-09-04T08:56:28.971Z,52.009998
2022-09-04T08:57:37.563Z,51.890999
2022-09-04T08:58:48.152Z,51.804001
2022-09-04T08:59:57.807Z,51.778999
2022-09-04T09:01:06.653Z,51.772999
2022-09-04T09:02:16.252Z,51.743
2022-09-04T09:03:25.855Z,51.749001
2022-09-04T09:04:34.602Z,51.755001
2022-09-04T09:05:44.241Z,51.761002
2022-09-04T09:06:51.847Z,51.738998
2022-09-04T09:07:59.411Z,51.695999
2022-09-04T09:09:08.999Z,51.667
2022-09-04T09:10:18.657Z,51.648998
2022-09-04T09:11:27.316Z,51.605
2022-09-04T09:12:40.328Z,51.570999
2022-09-04T09:13:45.532Z,51.549
2022-09-04T09:14:55.101Z,51.516998
2022-09-04T09:16:02.689Z,51.5
2022-09-04T09:17:12.307Z,51.466
2022-09-04T09:18:22.932Z,51.452
2022-09-04T09:19:32.501Z,51.474998
2022-09-04T09:20:41.097Z,51.487
2022-09-04T09:21:49.799Z,51.480999
2022-09-04T09:22:59.413Z,51.445
2022-09-04T09:24:09.142Z,51.429001
2022-09-04T09:25:18.840Z,51.403
2022-09-04T09:26:28.560Z,51.398998
2022-09-04T09:27:38.235Z,51.370998
2022-09-04T09:28:47.921Z,51.362999
2022-09-04T09:29:56.586Z,51.351002
2022-09-04T09:31:05.410Z,51.374001
2022-09-04T09:32:13.937Z,51.428001
2022-09-04T09:33:23.497Z,51.451
2022-09-04T09:34:30.066Z,51.591999
2022-09-04T09:35:36.801Z,51.622002
2022-09-04T09:36:46.459Z,51.662998
2022-09-04T09:37:55.023Z,51.700001
2022-09-04T09:39:03.691Z,51.845001
2022-09-04T09:40:12.317Z,51.917999
2022-09-04T09:41:22.284Z,52.041
2022-09-04T09:42:31.791Z,52.064999
2022-09-04T09:43:39.452Z,52.140999
2022-09-04T09:44:47.004Z,52.129002
2022-09-04T09:45:55.615Z,52.268002
2022-09-04T09:47:04.231Z,52.230999
2022-09-04T09:48:12.808Z,52.290001
2022-09-04T09:49:21.563Z,52.259998
2022-09-04T09:50:31.547Z,52.325001
2022-09-04T09:51:41.272Z,52.306999
2022-09-04T09:52:48.975Z,52.415001
2022-09-04T09:53:56.600Z,52.438
2022-09-04T09:55:06.181Z,52.580002
2022-09-04T09:56:14.795Z,52.528999
2022-09-04T09:57:25.541Z,52.43
2022-09-04T09:58:33.966Z,52.457001
2022-09-04T09:59:43.890Z,52.451
2022-09-04T10:00:53.467Z,52.540001
2022-09-04T10:02:01.168Z,52.546001
2022-09-04T10:03:09.718Z,52.584999
2022-09-04T10:04:19.294Z,52.581001
2022-09-04T10:05:27.879Z,52.632
2022-09-04T10:06:36.776Z,52.646
2022-09-04T10:07:47.614Z,52.615002
2022-09-04T10:08:56.250Z,52.633999
2022-09-04T10:10:05.894Z,52.610001
2022-09-04T10:11:13.563Z,52.616001
2022-09-04T10:12:24.343Z,52.578999
2022-09-04T10:13:34.401Z,52.602001
2022-09-04T10:14:42.984Z,52.651001
2022-09-04T10:15:52.849Z,52.705002
2022-09-04T10:17:02.459Z,52.799
2022-09-04T10:18:10.953Z,52.789001
2022-09-04T10:19:20.709Z,52.783001
2022-09-04T10:20:28.548Z,52.764
2022-09-04T10:21:37.253Z,52.804001
2022-09-04T10:22:47.111Z,52.798
2022-09-04T10:23:56.212Z,52.804001
2022-09-04T10:25:04.856Z,52.799999
2022-09-04T10:26:14.646Z,52.806
2022-09-04T10:27:23.265Z,52.750999
2022-09-04T10:28:33.349Z,52.763
2022-09-04T10:29:41.905Z,52.839001
2022-09-04T10:30:50.520Z,52.868
2022-09-04T10:32:00.103Z,52.810001
2022-09-04T10:33:11.792Z,52.926998
2022-09-04T10:34:18.189Z,52.896999
2022-09-04T10:35:26.750Z,52.964001
2022-09-04T10:36:35.370Z,52.974998
2022-09-04T10:37:45.053Z,52.957001
2022-09-04T10:38:53.604Z,52.963001
2022-09-04T10:40:01.254Z,52.976002
2022-09-04T10:41:10.837Z,52.970001
2022-09-04T10:42:19.477Z,53.078999
2022-09-04T10:43:29.118Z,53.005001
2022-09-04T10:44:38.685Z,52.915001
2022-09-04T10:45:47.337Z,52.827
2022-09-04T10:47:02.356Z,52.924
2022-09-04T10:48:24.143Z,52.992001
2022-09-04T10:49:36.277Z,53.028999
2022-09-04T10:50:44.150Z,53.063999
2022-09-04T10:51:51.726Z,52.970001
2022-09-04T10:53:01.380Z,53.103001
2022-09-04T10:54:09.984Z,53.162998
2022-09-04T10:55:18.654Z,53.136002
2022-09-04T10:56:26.282Z,53.139
2022-09-04T10:57:34.905Z,53.125
2022-09-04T10:58:44.485Z,53.134998
2022-09-04T10:59:57.052Z,53.074001
2022-09-04T11:01:01.694Z,53.085999
2022-09-04T11:02:11.276Z,52.967999
2022-09-04T11:03:19.811Z,52.938999
2022-09-04T11:04:28.578Z,52.915001
2022-09-04T11:05:37.199Z,52.912998
2022-09-04T11:06:46.848Z,52.945999
2022-09-04T11:07:56.604Z,52.814999
2022-09-04T11:09:04.471Z,52.75
2022-09-04T11:10:13.186Z,52.723999
2022-09-04T11:11:22.838Z,52.729
2022-09-04T11:12:31.513Z,52.665001
2022-09-04T11:13:41.359Z,52.692001
2022-09-04T11:14:51.192Z,52.742001
2022-09-04T11:15:59.877Z,52.661999
2022-09-04T11:17:10.483Z,52.653999
2022-09-04T11:18:18.111Z,52.671001
2022-09-04T11:19:26.649Z,52.758999
2022-09-04T11:20:36.587Z,52.734001
2022-09-04T11:21:45.050Z,52.668999
2022-09-04T11:22:53.629Z,52.598999
2022-09-04T11:24:02.214Z,52.655998
2022-09-04T11:25:11.946Z,52.627998
2022-09-04T11:26:21.615Z,52.653
2022-09-04T11:27:30.281Z,52.664001
2022-09-04T11:28:39.103Z,52.710999
2022-09-04T11:29:48.681Z,52.68
2022-09-04T11:30:57.636Z,52.710999
2022-09-04T11:32:06.382Z,52.705002
2022-09-04T11:33:15.146Z,52.710999
2022-09-04T11:34:23.885Z,52.734001
2022-09-04T11:35:33.901Z,52.734001
2022-09-04T11:36:41.488Z,52.750999
2022-09-04T11:37:51.265Z,52.694
2022-09-04T11:39:00.791Z,52.686001
2022-09-04T11:40:10.595Z,52.686001
2022-09-04T11:41:19.508Z,52.645
2022-09-04T11:42:29.090Z,52.639
2022-09-04T11:43:38.953Z,52.681
2022-09-04T11:44:48.588Z,52.661999
2022-09-04T11:45:59.504Z,52.632
2022-09-04T11:47:05.907Z,52.625
2022-09-04T11:48:15.564Z,52.639999
2022-09-04T11:49:25.157Z,52.622002
2022-09-04T11:50:33.786Z,52.609001
2022-09-04T11:51:43.368Z,52.622002
2022-09-04T11:52:52.004Z,52.615002
2022-09-04T11:54:02.047Z,52.598
2022-09-04T11:55:10.448Z,52.660999
2022-09-04T11:56:18.063Z,52.686001
2022-09-04T11:57:27.760Z,52.573002
2022-09-04T11:58:36.395Z,52.616001
2022-09-04T11:59:46.035Z,52.573002
2022-09-04T12:00:54.709Z,52.610001
2022-09-04T12:02:03.484Z,52.550999
2022-09-04T12:03:13.174Z,52.533001
2022-09-04T12:04:22.922Z,52.438999
2022-09-04T12:05:30.430Z,52.365002
2022-09-04T12:06:40.221Z,52.383999
2022-09-04T12:07:49.908Z,52.372002
2022-09-04T12:08:57.602Z,52.353001
2022-09-04T12:10:05.267Z,52.359001
2022-09-04T12:11:14.955Z,52.402
2022-09-04T12:12:22.443Z,52.368
2022-09-04T12:13:30.359Z,52.337002
2022-09-04T12:14:39.763Z,52.257999
2022-09-04T12:15:49.718Z,52.219002
2022-09-04T12:16:58.279Z,52.188
2022-09-04T12:18:07.080Z,52.169998
2022-09-04T12:19:15.824Z,52.200001
2022-09-04T12:20:24.421Z,52.166
2022-09-04T12:21:33.934Z,52.16
2022-09-04T12:22:41.688Z,52.111
2022-09-04T12:23:49.215Z,52.166
2022-09-04T12:24:58.872Z,52.083
2022-09-04T12:26:07.544Z,52.070999
2022-09-04T12:27:16.054Z,52.083
2022-09-04T12:28:24.629Z,52.068001
2022-09-04T12:29:33.325Z,52.105
2022-09-04T12:30:43.171Z,52.105
2022-09-04T12:31:51.500Z,52.129002
2022-09-04T12:32:58.287Z,52.155998
2022-09-04T12:34:08.829Z,52.092999
2022-09-04T12:35:17.533Z,52.022999
2022-09-04T12:36:26.410Z,52.056
